createdAt,value
2023-02-25T00:00:47.289Z,41.88
2023-02-25T00:02:02.768Z,40.19
2023-02-25T00:04:45.020Z,36.63
2023-02-25T00:05:45.037Z,38.14
2023-02-25T00:06:44.998Z,48.26
2023-02-25T00:07:44.992Z,40.67
2023-02-25T00:08:44.975Z,38.75
2023-02-25T00:09:44.967Z,39.61
2023-02-25T00:10:44.950Z,40.01
2023-02-25T00:11:44.935Z,40.09
2023-02-25T00:12:44.937Z,40.27
2023-02-25T00:13:44.944Z,39.61
2023-02-25T00:14:44.905Z,39.27
2023-02-25T00:15:44.909Z,39.36
2023-02-25T00:16:44.927Z,39.09
2023-02-25T00:17:44.887Z,38.91
2023-02-25T00:18:44.868Z,39.30
2023-02-25T00:19:44.851Z,39.77
2023-02-25T00:20:44.841Z,39.44
2023-02-25T00:21:44.832Z,40.23
2023-02-25T00:22:44.848Z,40.63
2023-02-25T00:23:44.815Z,40.53
2023-02-25T00:24:44.813Z,39.70
2023-02-25T00:25:44.789Z,40.66
2023-02-25T00:26:44.786Z,48.25
2023-02-25T00:27:44.779Z,40.18
2023-02-25T00:28:44.758Z,40.24
2023-02-25T00:29:44.744Z,40.86
2023-02-25T00:30:44.901Z,43.78
2023-02-25T00:31:44.917Z,43.10
2023-02-25T00:32:44.776Z,40.10
2023-02-25T00:33:44.709Z,45.15
2023-02-25T00:34:44.707Z,40.03
2023-02-25T00:35:44.679Z,39.87
2023-02-25T00:36:44.742Z,40.49
2023-02-25T00:37:44.667Z,40.95
2023-02-25T00:38:44.687Z,46.99
2023-02-25T00:39:44.742Z,40.01
2023-02-25T00:40:44.640Z,40.15
2023-02-25T00:41:44.628Z,40.10
2023-02-25T00:42:44.625Z,39.90
2023-02-25T00:43:44.605Z,40.09
2023-02-25T00:44:44.596Z,40.98
2023-02-25T00:45:44.597Z,41.76
2023-02-25T00:46:44.623Z,40.04
2023-02-25T00:47:44.553Z,41.83
2023-02-25T00:48:44.566Z,47.43
2023-02-25T00:49:44.532Z,41.59
2023-02-25T00:50:44.522Z,43.15
2023-02-25T00:51:44.518Z,41.43
2023-02-25T00:52:44.510Z,40.45
2023-02-25T00:53:44.486Z,41.36
2023-02-25T00:54:44.477Z,41.27
2023-02-25T00:55:44.474Z,40.81
2023-02-25T00:56:44.475Z,41.02
2023-02-25T00:57:44.451Z,40.15
2023-02-25T00:58:44.445Z,40.93
2023-02-25T00:59:44.422Z,45.56
2023-02-25T01:00:51.543Z,41.07
2023-02-25T01:01:45.475Z,40.98
2023-02-25T01:02:44.433Z,41.44
2023-02-25T01:03:44.413Z,41.44
2023-02-25T01:04:44.376Z,42.03
2023-02-25T01:05:44.364Z,40.81
2023-02-25T01:06:44.364Z,40.43
2023-02-25T01:07:44.349Z,41.20
2023-02-25T01:08:44.339Z,41.57
2023-02-25T01:09:44.312Z,41.72
2023-02-25T01:10:44.308Z,40.80
2023-02-25T01:11:44.309Z,42.12
2023-02-25T01:12:44.285Z,41.69
2023-02-25T01:13:44.286Z,40.88
2023-02-25T01:14:44.268Z,45.98
2023-02-25T01:15:44.266Z,41.65
2023-02-25T01:16:44.260Z,41.22
2023-02-25T01:17:44.242Z,41.08
2023-02-25T01:18:44.219Z,40.62
2023-02-25T01:19:44.217Z,39.31
2023-02-25T01:20:44.211Z,41.12
2023-02-25T01:21:44.212Z,41.79
2023-02-25T01:22:44.212Z,41.07
2023-02-25T01:23:44.165Z,40.32
2023-02-25T01:24:44.162Z,41.48
2023-02-25T01:25:44.152Z,43.64
2023-02-25T01:26:44.141Z,47.21
2023-02-25T01:27:44.168Z,46.27
2023-02-25T01:28:44.120Z,44.81
2023-02-25T01:29:44.102Z,43.28
2023-02-25T01:30:44.134Z,42.20
2023-02-25T01:31:44.224Z,46.48
2023-02-25T01:32:44.257Z,48.34
2023-02-25T01:33:44.062Z,47.07
2023-02-25T01:34:44.061Z,49.60
2023-02-25T01:35:44.049Z,49.99
2023-02-25T01:36:44.033Z,48.17
2023-02-25T01:37:44.045Z,47.41
2023-02-25T01:38:44.016Z,46.37
2023-02-25T01:39:44.004Z,45.10
2023-02-25T01:40:43.988Z,48.00
2023-02-25T01:41:43.992Z,49.15
2023-02-25T01:42:43.991Z,43.05
2023-02-25T01:43:43.961Z,42.43
2023-02-25T01:44:43.956Z,42.03
2023-02-25T01:45:43.947Z,42.12
2023-02-25T01:46:44.023Z,42.40
2023-02-25T01:47:43.942Z,43.87
2023-02-25T01:48:43.926Z,48.06
2023-02-25T01:49:43.900Z,47.86
2023-02-25T01:50:43.892Z,45.98
2023-02-25T01:51:43.876Z,48.64
2023-02-25T01:52:43.938Z,54.45
2023-02-25T01:53:43.860Z,51.49
2023-02-25T01:54:43.849Z,47.00
2023-02-25T01:55:43.846Z,44.90
2023-02-25T01:56:43.845Z,43.33
2023-02-25T01:57:43.851Z,41.71
2023-02-25T01:58:43.836Z,46.56
2023-02-25T01:59:43.855Z,44.83
2023-02-25T02:00:43.891Z,42.71
2023-02-25T02:01:43.803Z,42.27
2023-02-25T02:02:43.854Z,41.17
2023-02-25T02:03:43.782Z,41.38
2023-02-25T02:04:43.779Z,46.26
2023-02-25T02:05:43.752Z,44.13
2023-02-25T02:06:43.738Z,41.58
2023-02-25T02:07:43.778Z,41.63
2023-02-25T02:08:43.736Z,41.03
2023-02-25T02:09:43.713Z,40.29
2023-02-25T02:10:43.707Z,39.46
2023-02-25T02:11:43.684Z,42.70
2023-02-25T02:12:43.696Z,40.84
2023-02-25T02:13:43.666Z,40.66
2023-02-25T02:14:43.649Z,41.16
2023-02-25T02:15:43.635Z,39.82
2023-02-25T02:16:43.681Z,40.73
2023-02-25T02:17:43.628Z,48.15
2023-02-25T02:18:43.619Z,48.92
2023-02-25T02:19:43.623Z,49.62
2023-02-25T02:20:43.619Z,53.17
2023-02-25T02:21:43.583Z,52.30
2023-02-25T02:22:43.622Z,50.66
2023-02-25T02:23:43.550Z,45.31
2023-02-25T02:24:43.539Z,43.41
2023-02-25T02:25:43.550Z,44.89
2023-02-25T02:26:43.524Z,46.11
2023-02-25T02:27:43.549Z,41.88
2023-02-25T02:28:43.518Z,41.42
2023-02-25T02:29:43.555Z,41.58
2023-02-25T02:30:43.542Z,42.51
2023-02-25T02:31:43.578Z,40.44
2023-02-25T02:32:43.581Z,40.05
2023-02-25T02:33:43.492Z,39.60
2023-02-25T02:34:43.453Z,39.18
2023-02-25T02:35:43.444Z,39.19
2023-02-25T02:36:43.425Z,39.14
2023-02-25T02:37:43.419Z,39.63
2023-02-25T02:38:43.427Z,41.85
2023-02-25T02:39:43.398Z,40.29
2023-02-25T02:40:43.409Z,38.95
2023-02-25T02:41:43.375Z,39.97
2023-02-25T02:42:43.369Z,40.36
2023-02-25T02:43:43.363Z,39.02
2023-02-25T02:44:43.338Z,39.25
2023-02-25T02:45:43.335Z,40.17
2023-02-25T02:46:43.308Z,40.77
2023-02-25T02:47:43.321Z,40.19
2023-02-25T02:48:43.325Z,39.98
2023-02-25T02:49:43.297Z,39.47
2023-02-25T02:50:43.295Z,40.81
2023-02-25T02:51:43.261Z,41.56
2023-02-25T02:52:43.265Z,41.29
2023-02-25T02:53:43.261Z,40.18
2023-02-25T02:54:43.223Z,40.99
2023-02-25T02:55:43.221Z,41.41
2023-02-25T02:56:43.206Z,40.57
2023-02-25T02:57:43.194Z,39.92
2023-02-25T02:58:43.201Z,39.78
2023-02-25T02:59:43.378Z,40.31
2023-02-25T03:00:43.217Z,40.22
2023-02-25T03:01:43.149Z,39.78
2023-02-25T03:02:43.139Z,40.09
2023-02-25T03:03:43.170Z,40.81
2023-02-25T03:04:43.127Z,40.64
2023-02-25T03:05:43.107Z,38.58
2023-02-25T03:06:43.123Z,39.10
2023-02-25T03:07:43.088Z,40.08
2023-02-25T03:08:43.087Z,39.39
2023-02-25T03:09:43.103Z,39.51
2023-02-25T03:10:43.065Z,38.36
2023-02-25T03:11:43.052Z,45.63
2023-02-25T03:12:43.038Z,40.37
2023-02-25T03:13:43.050Z,37.79
2023-02-25T03:14:43.008Z,37.85
2023-02-25T03:15:43.005Z,38.30
2023-02-25T03:16:43.057Z,39.09
2023-02-25T03:17:42.982Z,40.06
2023-02-25T03:18:43.045Z,40.79
2023-02-25T03:19:42.987Z,39.46
2023-02-25T03:20:42.953Z,40.25
2023-02-25T03:21:42.953Z,42.42
2023-02-25T03:22:42.942Z,41.20
2023-02-25T03:23:42.930Z,40.52
2023-02-25T03:24:42.921Z,41.63
2023-02-25T03:25:42.920Z,40.58
2023-02-25T03:26:42.915Z,42.36
2023-02-25T03:27:42.901Z,42.97
2023-02-25T03:28:42.915Z,40.92
2023-02-25T03:29:42.874Z,40.58
2023-02-25T03:30:42.890Z,39.92
2023-02-25T03:31:42.999Z,39.90
2023-02-25T03:32:42.891Z,39.67
2023-02-25T03:33:42.819Z,41.20
2023-02-25T03:34:42.820Z,40.60
2023-02-25T03:35:42.848Z,41.05
2023-02-25T03:36:42.805Z,41.18
2023-02-25T03:37:42.791Z,42.03
2023-02-25T03:38:42.778Z,42.07
2023-02-25T03:39:43.964Z,41.33
2023-02-25T03:40:43.962Z,41.48
2023-02-25T03:41:43.945Z,41.29
2023-02-25T03:42:43.900Z,41.82
2023-02-25T03:43:43.932Z,41.37
2023-02-25T03:44:43.906Z,41.36
2023-02-25T03:45:43.931Z,39.92
2023-02-25T03:46:43.908Z,41.01
2023-02-25T03:47:43.950Z,48.03
2023-02-25T03:48:43.838Z,45.08
2023-02-25T03:49:43.840Z,47.24
2023-02-25T03:50:44.842Z,42.74
2023-02-25T03:51:43.828Z,40.10
2023-02-25T03:52:43.800Z,40.86
2023-02-25T03:53:43.789Z,40.10
2023-02-25T03:54:43.822Z,40.74
2023-02-25T03:55:43.778Z,40.97
2023-02-25T03:56:44.787Z,42.48
2023-02-25T03:57:43.746Z,41.52
2023-02-25T03:58:43.760Z,46.10
2023-02-25T03:59:43.786Z,41.91
2023-02-25T04:00:43.755Z,44.63
2023-02-25T04:01:43.716Z,40.45
2023-02-25T04:02:43.771Z,39.84
2023-02-25T04:03:43.682Z,40.82
2023-02-25T04:04:43.753Z,40.87
2023-02-25T04:05:43.721Z,40.67
2023-02-25T04:06:43.771Z,41.24
2023-02-25T04:07:43.710Z,40.47
2023-02-25T04:08:43.665Z,40.51
2023-02-25T04:09:43.649Z,40.24
2023-02-25T04:10:43.640Z,38.96
2023-02-25T04:11:43.661Z,39.91
2023-02-25T04:12:43.610Z,40.95
2023-02-25T04:13:43.607Z,40.71
2023-02-25T04:14:43.669Z,42.16
2023-02-25T04:15:43.692Z,50.85
2023-02-25T04:16:43.551Z,44.46
2023-02-25T04:17:43.588Z,40.99
2023-02-25T04:18:43.549Z,44.69
2023-02-25T04:19:43.595Z,48.68
2023-02-25T04:20:43.535Z,48.53
2023-02-25T04:21:43.510Z,44.49
2023-02-25T04:22:43.550Z,39.47
2023-02-25T04:23:43.515Z,39.30
2023-02-25T04:24:43.488Z,41.51
2023-02-25T04:25:43.484Z,40.10
2023-02-25T04:26:43.489Z,40.04
2023-02-25T04:27:43.461Z,40.89
2023-02-25T04:28:43.473Z,41.72
2023-02-25T04:29:43.439Z,39.95
2023-02-25T04:30:43.606Z,39.52
2023-02-25T04:31:43.522Z,40.30
2023-02-25T04:32:43.456Z,45.94
2023-02-25T04:33:43.407Z,40.93
2023-02-25T04:34:43.407Z,40.89
2023-02-25T04:35:43.386Z,41.18
2023-02-25T04:36:43.377Z,41.04
2023-02-25T04:37:43.360Z,42.19
2023-02-25T04:38:43.387Z,41.28
2023-02-25T04:39:43.336Z,41.04
2023-02-25T04:40:43.381Z,41.14
2023-02-25T04:41:43.316Z,41.57
2023-02-25T04:42:43.331Z,41.70
2023-02-25T04:43:43.295Z,41.16
2023-02-25T04:44:43.278Z,41.96
2023-02-25T04:45:44.287Z,39.92
2023-02-25T04:46:43.320Z,39.42
2023-02-25T04:47:43.250Z,39.04
2023-02-25T04:48:43.385Z,39.68
2023-02-25T04:49:43.266Z,39.35
2023-02-25T04:50:43.265Z,40.28
2023-02-25T04:51:43.266Z,39.47
2023-02-25T04:52:43.244Z,39.87
2023-02-25T04:53:43.254Z,40.26
2023-02-25T04:54:43.199Z,41.14
2023-02-25T04:55:43.196Z,42.73
2023-02-25T04:56:43.229Z,50.72
2023-02-25T04:57:43.171Z,44.50
2023-02-25T04:58:43.184Z,41.23
2023-02-25T04:59:43.165Z,39.89
2023-02-25T05:00:43.153Z,46.10
2023-02-25T05:01:43.238Z,49.90
2023-02-25T05:02:43.100Z,41.30
2023-02-25T05:03:43.146Z,51.43
2023-02-25T05:04:43.162Z,41.97
2023-02-25T05:05:43.067Z,50.45
2023-02-25T05:06:43.091Z,48.96
2023-02-25T05:07:43.054Z,46.37
2023-02-25T05:08:43.044Z,40.37
2023-02-25T05:09:44.063Z,40.93
2023-02-25T05:10:43.052Z,41.38
2023-02-25T05:11:43.045Z,45.25
2023-02-25T05:12:43.046Z,45.19
2023-02-25T05:13:42.993Z,48.10
2023-02-25T05:14:42.992Z,41.60
2023-02-25T05:15:42.996Z,40.52
2023-02-25T05:16:43.097Z,47.24
2023-02-25T05:17:42.987Z,44.67
2023-02-25T05:18:42.964Z,39.69
2023-02-25T05:19:42.940Z,45.08
2023-02-25T05:20:43.038Z,39.84
2023-02-25T05:21:42.940Z,39.90
2023-02-25T05:22:42.925Z,40.00
2023-02-25T05:23:42.883Z,45.06
2023-02-25T05:24:42.912Z,39.43
2023-02-25T05:25:42.880Z,45.55
2023-02-25T05:26:42.878Z,40.62
2023-02-25T05:27:42.888Z,42.76
2023-02-25T05:28:42.823Z,38.98
2023-02-25T05:29:42.867Z,39.28
2023-02-25T05:30:42.841Z,43.57
2023-02-25T05:31:42.984Z,42.45
2023-02-25T05:32:42.908Z,43.77
2023-02-25T05:33:42.795Z,46.96
2023-02-25T05:34:42.791Z,43.12
2023-02-25T05:35:42.795Z,48.07
2023-02-25T05:36:42.780Z,45.14
2023-02-25T05:37:42.772Z,40.19
2023-02-25T05:38:42.727Z,41.87
2023-02-25T05:39:42.748Z,39.96
2023-02-25T05:40:42.766Z,41.24
2023-02-25T05:41:42.710Z,45.39
2023-02-25T05:42:42.722Z,44.66
2023-02-25T05:43:42.709Z,51.66
2023-02-25T05:44:42.679Z,45.14
2023-02-25T05:45:42.712Z,45.72
2023-02-25T05:46:42.756Z,44.83
2023-02-25T05:47:42.714Z,42.34
2023-02-25T05:48:42.638Z,42.83
2023-02-25T05:49:42.641Z,45.01
2023-02-25T05:50:43.862Z,52.32
2023-02-25T05:51:42.650Z,53.01
2023-02-25T05:52:42.634Z,51.04
2023-02-25T05:53:42.657Z,49.45
2023-02-25T05:54:42.568Z,54.45
2023-02-25T05:55:42.579Z,42.89
2023-02-25T05:56:42.549Z,41.49
2023-02-25T05:57:42.590Z,45.84
2023-02-25T05:58:42.578Z,41.69
2023-02-25T05:59:42.569Z,44.96
2023-02-25T06:00:42.563Z,41.56
2023-02-25T06:01:42.527Z,43.85
2023-02-25T06:02:42.577Z,42.22
2023-02-25T06:03:42.502Z,39.92
2023-02-25T06:04:42.493Z,40.19
2023-02-25T06:05:42.511Z,44.12
2023-02-25T06:06:42.491Z,49.33
2023-02-25T06:07:42.476Z,51.63
2023-02-25T06:08:42.475Z,46.98
2023-02-25T06:09:42.428Z,48.60
2023-02-25T06:10:42.446Z,47.97
2023-02-25T06:11:42.431Z,41.59
2023-02-25T06:12:42.410Z,41.14
2023-02-25T06:13:42.438Z,41.25
2023-02-25T06:14:42.425Z,41.46
2023-02-25T06:15:42.370Z,42.83
2023-02-25T06:16:42.521Z,42.19
2023-02-25T06:17:42.375Z,45.92
2023-02-25T06:18:42.354Z,44.26
2023-02-25T06:19:42.326Z,49.63
2023-02-25T06:20:42.376Z,46.22
2023-02-25T06:21:42.315Z,43.96
2023-02-25T06:22:42.329Z,47.81
2023-02-25T06:23:42.316Z,42.82
2023-02-25T06:24:42.279Z,46.44
2023-02-25T06:25:42.303Z,53.52
2023-02-25T06:26:42.292Z,44.46
2023-02-25T06:27:42.287Z,44.57
2023-02-25T06:28:42.276Z,42.53
2023-02-25T06:29:42.239Z,48.42
2023-02-25T06:30:42.286Z,49.22
2023-02-25T06:31:42.387Z,50.45
2023-02-25T06:32:42.252Z,43.15
2023-02-25T06:33:42.271Z,52.92
2023-02-25T06:34:42.331Z,46.51
2023-02-25T06:35:42.182Z,45.13
2023-02-25T06:36:42.218Z,45.38
2023-02-25T06:37:42.191Z,48.85
2023-02-25T06:38:42.183Z,48.24
2023-02-25T06:39:42.148Z,51.42
2023-02-25T06:40:42.131Z,51.12
2023-02-25T06:41:42.165Z,53.23
2023-02-25T06:42:42.115Z,55.08
2023-02-25T06:43:42.100Z,46.92
2023-02-25T06:44:42.084Z,43.36
2023-02-25T06:45:42.137Z,48.62
2023-02-25T06:46:42.059Z,45.11
2023-02-25T06:47:42.092Z,43.33
2023-02-25T06:48:42.175Z,49.18
2023-02-25T06:49:42.112Z,52.94
2023-02-25T06:50:42.032Z,53.61
2023-02-25T06:51:42.005Z,42.86
2023-02-25T06:52:42.042Z,43.58
2023-02-25T06:53:42.041Z,42.30
2023-02-25T06:54:41.946Z,51.12
2023-02-25T06:55:42.107Z,44.64
2023-02-25T06:56:41.977Z,43.64
2023-02-25T06:57:41.957Z,44.90
2023-02-25T06:58:42.005Z,46.26
2023-02-25T06:59:42.002Z,49.35
2023-02-25T07:00:41.936Z,47.30
2023-02-25T07:01:42.001Z,47.82
2023-02-25T07:02:41.933Z,47.54
2023-02-25T07:03:41.920Z,43.54
2023-02-25T07:04:43.977Z,47.02
2023-02-25T07:05:42.907Z,47.80
2023-02-25T07:06:41.925Z,48.39
2023-02-25T07:07:41.845Z,44.17
2023-02-25T07:08:41.894Z,51.35
2023-02-25T07:09:41.831Z,53.11
2023-02-25T07:10:41.874Z,51.79
2023-02-25T07:11:41.837Z,44.56
2023-02-25T07:12:41.821Z,46.93
2023-02-25T07:13:41.954Z,49.37
2023-02-25T07:14:41.899Z,42.14
2023-02-25T07:15:41.967Z,47.10
2023-02-25T07:16:41.923Z,52.64
2023-02-25T07:17:41.896Z,51.62
2023-02-25T07:18:41.855Z,47.94
2023-02-25T07:19:41.762Z,48.87
2023-02-25T07:20:41.771Z,52.52
2023-02-25T07:21:41.734Z,47.19
2023-02-25T07:22:41.815Z,44.42
2023-02-25T07:23:41.800Z,48.50
2023-02-25T07:24:41.698Z,50.80
2023-02-25T07:25:41.738Z,45.99
2023-02-25T07:26:41.698Z,49.98
2023-02-25T07:27:44.400Z,48.05
2023-02-25T07:28:42.713Z,47.00
2023-02-25T07:29:41.689Z,46.17
2023-02-25T07:30:41.777Z,49.60
2023-02-25T07:31:41.791Z,48.75
2023-02-25T07:32:41.813Z,49.95
2023-02-25T07:33:41.804Z,43.54
2023-02-25T07:34:41.723Z,49.56
2023-02-25T07:35:41.718Z,51.20
2023-02-25T07:36:41.710Z,48.45
2023-02-25T07:37:41.600Z,44.43
2023-02-25T07:38:42.396Z,48.96
2023-02-25T07:39:42.056Z,52.85
2023-02-25T07:40:41.675Z,51.76
2023-02-25T07:41:41.580Z,46.01
2023-02-25T07:42:41.542Z,48.50
2023-02-25T07:43:41.587Z,53.74
2023-02-25T07:44:41.541Z,55.14
2023-02-25T07:45:41.693Z,52.17
2023-02-25T07:46:41.725Z,55.11
2023-02-25T07:47:41.590Z,54.76
2023-02-25T07:48:41.519Z,54.75
2023-02-25T07:49:41.943Z,53.11
2023-02-25T07:50:41.417Z,54.93
2023-02-25T07:53:58.322Z,47.85
2023-02-25T07:54:59.635Z,54.72
2023-02-25T07:55:58.319Z,51.24
2023-02-25T07:56:58.039Z,49.71
2023-02-25T07:57:58.027Z,52.73
2023-02-25T07:58:58.024Z,61.04
2023-02-25T07:59:57.993Z,58.53
2023-02-25T08:00:57.986Z,52.04
2023-02-25T08:01:57.966Z,55.59
2023-02-25T08:02:57.998Z,50.80
2023-02-25T08:03:57.999Z,50.67
2023-02-25T08:04:57.933Z,52.69
2023-02-25T08:05:57.923Z,50.22
2023-02-25T08:06:57.909Z,54.77
2023-02-25T08:07:57.913Z,49.00
2023-02-25T08:08:57.926Z,43.58
2023-02-25T08:09:57.899Z,52.44
2023-02-25T08:10:57.864Z,42.24
2023-02-25T08:11:57.857Z,46.01
2023-02-25T08:12:57.847Z,53.99
2023-02-25T08:13:57.850Z,55.09
2023-02-25T08:14:57.821Z,48.01
2023-02-25T08:15:57.833Z,50.09
2023-02-25T08:16:57.813Z,44.91
2023-02-25T08:17:57.791Z,55.01
2023-02-25T08:18:57.790Z,51.30
2023-02-25T08:19:57.774Z,52.60
2023-02-25T08:20:57.758Z,53.87
2023-02-25T08:21:57.752Z,50.74
2023-02-25T08:22:57.736Z,53.87
2023-02-25T08:23:57.743Z,57.01
2023-02-25T08:24:57.714Z,57.93
2023-02-25T08:25:57.721Z,55.99
2023-02-25T08:26:57.694Z,54.03
2023-02-25T08:27:57.687Z,51.80
2023-02-25T08:28:57.679Z,48.31
2023-02-25T08:29:57.662Z,54.10
2023-02-25T08:30:57.807Z,54.13
2023-02-25T08:31:57.927Z,55.32
2023-02-25T08:32:57.686Z,55.74
2023-02-25T08:33:57.637Z,51.32
2023-02-25T08:34:57.621Z,55.90
2023-02-25T08:35:57.620Z,53.09
2023-02-25T08:36:57.593Z,49.77
2023-02-25T08:37:57.584Z,49.37
2023-02-25T08:38:57.616Z,49.81
2023-02-25T08:39:57.567Z,53.57
2023-02-25T08:40:57.548Z,54.47
2023-02-25T08:41:57.538Z,56.60
2023-02-25T08:42:57.528Z,58.15
2023-02-25T08:43:57.528Z,57.84
2023-02-25T08:44:57.513Z,61.88
2023-02-25T08:45:57.502Z,57.60
2023-02-25T08:46:57.530Z,59.85
2023-02-25T08:47:57.486Z,58.80
2023-02-25T08:48:57.481Z,56.43
2023-02-25T08:49:57.460Z,54.13
2023-02-25T08:50:57.444Z,58.31
2023-02-25T08:51:57.437Z,57.95
2023-02-25T08:52:57.418Z,54.41
2023-02-25T08:53:57.429Z,51.28
2023-02-25T08:54:57.399Z,50.90
2023-02-25T08:55:57.390Z,51.50
2023-02-25T08:56:57.375Z,57.44
2023-02-25T08:57:57.368Z,51.25
2023-02-25T08:58:57.369Z,56.17
2023-02-25T08:59:57.340Z,53.89
2023-02-25T09:00:57.380Z,54.94
2023-02-25T09:01:57.320Z,47.03
2023-02-25T09:02:57.312Z,51.28
2023-02-25T09:03:57.314Z,53.01
2023-02-25T09:04:57.289Z,49.42
2023-02-25T09:05:57.283Z,47.94
2023-02-25T09:06:57.272Z,54.14
2023-02-25T09:07:57.260Z,43.72
2023-02-25T09:08:57.259Z,49.29
2023-02-25T09:09:57.249Z,50.61
2023-02-25T09:10:57.223Z,54.94
2023-02-25T09:11:57.213Z,52.31
2023-02-25T09:12:57.206Z,54.34
2023-02-25T09:13:57.202Z,45.99
2023-02-25T09:14:57.181Z,52.92
2023-02-25T09:15:57.180Z,52.51
2023-02-25T09:16:57.230Z,54.91
2023-02-25T09:17:57.164Z,54.61
2023-02-25T09:18:57.154Z,55.99
2023-02-25T09:19:57.133Z,52.96
2023-02-25T09:20:57.117Z,51.16
2023-02-25T09:21:57.108Z,47.99
2023-02-25T09:22:57.424Z,54.05
2023-02-25T09:23:57.108Z,54.59
2023-02-25T09:24:57.075Z,45.95
2023-02-25T09:25:57.074Z,53.65
2023-02-25T09:26:57.050Z,51.85
2023-02-25T09:27:57.056Z,47.12
2023-02-25T09:28:57.031Z,51.11
2023-02-25T09:29:57.035Z,53.40
2023-02-25T09:30:57.077Z,45.38
2023-02-25T09:31:57.206Z,54.21
2023-02-25T09:32:57.110Z,52.61
2023-02-25T09:33:56.982Z,50.43
2023-02-25T09:34:56.978Z,49.91
2023-02-25T09:35:56.962Z,51.98
2023-02-25T09:36:56.941Z,49.92
2023-02-25T09:37:56.936Z,48.34
2023-02-25T09:38:56.929Z,50.90
2023-02-25T09:39:56.930Z,54.76
2023-02-25T09:40:56.904Z,52.32
2023-02-25T09:41:56.903Z,50.75
2023-02-25T09:42:56.881Z,53.32
2023-02-25T09:43:56.881Z,49.85
2023-02-25T09:44:56.871Z,46.25
2023-02-25T09:45:56.904Z,51.52
2023-02-25T09:46:56.836Z,54.29
2023-02-25T09:47:56.893Z,54.32
2023-02-25T09:48:56.826Z,44.96
2023-02-25T09:49:56.846Z,54.34
2023-02-25T09:50:56.811Z,42.09
2023-02-25T09:51:56.790Z,53.33
2023-02-25T09:52:56.776Z,43.65
2023-02-25T09:53:56.840Z,48.77
2023-02-25T09:54:56.763Z,53.77
2023-02-25T09:55:56.740Z,47.92
2023-02-25T09:56:56.734Z,47.19
2023-02-25T09:57:56.729Z,51.53
2023-02-25T09:58:56.716Z,48.00
2023-02-25T09:59:56.713Z,47.83
2023-02-25T10:00:56.699Z,42.27
2023-02-25T10:01:56.692Z,54.81
2023-02-25T10:02:56.795Z,56.97
2023-02-25T10:03:56.661Z,48.40
2023-02-25T10:04:56.662Z,49.61
2023-02-25T10:05:56.649Z,51.65
2023-02-25T10:06:56.625Z,52.02
2023-02-25T10:07:56.631Z,52.47
2023-02-25T10:08:56.603Z,51.76
2023-02-25T10:09:56.601Z,53.03
2023-02-25T10:10:56.590Z,49.80
2023-02-25T10:11:56.570Z,44.24
2023-02-25T10:12:56.564Z,51.05
2023-02-25T10:13:56.672Z,48.93
2023-02-25T10:14:56.568Z,50.39
2023-02-25T10:15:56.533Z,45.59
2023-02-25T10:16:56.551Z,48.32
2023-02-25T10:17:56.516Z,52.13
2023-02-25T10:18:56.500Z,50.32
2023-02-25T10:19:56.511Z,51.54
2023-02-25T10:20:56.473Z,48.71
2023-02-25T10:21:56.476Z,50.25
2023-02-25T10:22:56.462Z,53.94
2023-02-25T10:23:56.501Z,50.50
2023-02-25T10:24:56.447Z,45.92
2023-02-25T10:25:56.420Z,45.16
2023-02-25T10:26:56.407Z,53.49
2023-02-25T10:27:56.399Z,50.67
2023-02-25T10:28:56.389Z,49.28
2023-02-25T10:29:56.387Z,48.66
2023-02-25T10:30:56.432Z,41.40
2023-02-25T10:31:56.608Z,51.75
2023-02-25T10:32:56.387Z,52.69
2023-02-25T10:33:56.333Z,51.51
2023-02-25T10:34:56.329Z,50.95
2023-02-25T10:35:56.309Z,50.36
2023-02-25T10:36:56.299Z,51.00
2023-02-25T10:37:56.325Z,49.55
2023-02-25T10:38:56.279Z,57.35
2023-02-25T10:39:56.284Z,51.14
2023-02-25T10:40:56.259Z,49.59
2023-02-25T10:41:56.272Z,49.78
2023-02-25T10:42:56.236Z,39.54
2023-02-25T10:43:56.223Z,46.93
2023-02-25T10:44:56.222Z,51.51
2023-02-25T10:45:56.249Z,54.28
2023-02-25T10:46:56.187Z,49.03
2023-02-25T10:47:56.175Z,52.51
2023-02-25T10:48:56.182Z,56.28
2023-02-25T10:49:56.169Z,52.76
2023-02-25T10:50:56.147Z,50.44
2023-02-25T10:51:56.139Z,48.63
2023-02-25T10:52:56.130Z,45.96
2023-02-25T10:53:56.130Z,45.57
2023-02-25T10:54:56.107Z,44.82
2023-02-25T10:55:56.106Z,45.69
2023-02-25T10:56:56.084Z,46.53
2023-02-25T10:57:56.071Z,46.44
2023-02-25T10:58:56.064Z,47.59
2023-02-25T10:59:56.049Z,52.74
2023-02-25T11:00:56.057Z,48.68
2023-02-25T11:01:56.088Z,47.84
2023-02-25T11:02:56.067Z,41.55
2023-02-25T11:03:56.029Z,50.97
2023-02-25T11:04:56.004Z,51.57
2023-02-25T11:05:55.992Z,38.79
2023-02-25T11:06:55.974Z,48.46
2023-02-25T11:07:55.974Z,55.77
2023-02-25T11:08:55.949Z,51.99
2023-02-25T11:09:55.939Z,52.21
2023-02-25T11:10:55.970Z,48.05
2023-02-25T11:11:55.930Z,49.66
2023-02-25T11:12:55.907Z,53.98
2023-02-25T11:13:55.896Z,39.08
2023-02-25T11:14:55.886Z,47.08
2023-02-25T11:15:55.902Z,50.67
2023-02-25T11:16:55.860Z,49.85
2023-02-25T11:17:55.851Z,36.79
2023-02-25T11:18:55.836Z,48.92
2023-02-25T11:19:55.863Z,44.90
2023-02-25T11:20:55.841Z,49.14
2023-02-25T11:21:55.803Z,50.04
2023-02-25T11:22:55.796Z,50.92
2023-02-25T11:23:55.786Z,45.96
2023-02-25T11:24:55.775Z,41.09
2023-02-25T11:25:55.777Z,44.39
2023-02-25T11:26:55.759Z,36.77
2023-02-25T11:27:55.745Z,47.04
2023-02-25T11:28:55.738Z,47.68
2023-02-25T11:29:55.730Z,36.72
2023-02-25T11:30:55.812Z,44.05
2023-02-25T11:31:55.903Z,39.22
2023-02-25T11:32:55.747Z,44.45
2023-02-25T11:33:55.690Z,47.58
2023-02-25T11:34:55.677Z,48.55
2023-02-25T11:35:55.701Z,42.92
2023-02-25T11:36:55.657Z,48.57
2023-02-25T11:37:55.643Z,48.98
2023-02-25T11:38:55.628Z,47.44
2023-02-25T11:39:55.620Z,49.03
2023-02-25T11:40:55.613Z,49.71
2023-02-25T11:41:55.606Z,53.70
2023-02-25T11:42:55.589Z,41.78
2023-02-25T11:43:55.571Z,42.09
2023-02-25T11:44:55.561Z,48.38
2023-02-25T11:45:55.559Z,44.15
2023-02-25T11:46:55.557Z,50.71
2023-02-25T11:47:55.532Z,52.04
2023-02-25T11:48:55.520Z,43.61
2023-02-25T11:49:55.506Z,45.91
2023-02-25T11:50:55.500Z,49.80
2023-02-25T11:51:55.502Z,52.00
2023-02-25T11:52:55.489Z,52.09
2023-02-25T11:53:55.501Z,45.37
2023-02-25T11:54:55.459Z,45.40
2023-02-25T11:55:55.456Z,52.40
2023-02-25T11:56:55.462Z,50.67
2023-02-25T11:57:55.422Z,52.14
2023-02-25T11:58:55.417Z,48.38
2023-02-25T11:59:55.405Z,56.57
2023-02-25T12:00:55.400Z,51.70
2023-02-25T12:01:55.404Z,52.24
2023-02-25T12:02:55.402Z,42.23
2023-02-25T12:03:55.360Z,49.05
2023-02-25T12:04:55.363Z,46.06
2023-02-25T12:05:55.458Z,40.67
2023-02-25T12:06:55.344Z,46.01
2023-02-25T12:08:12.312Z,45.14
2023-02-25T12:08:56.313Z,46.58
2023-02-25T12:09:55.308Z,45.57
2023-02-25T12:10:55.289Z,47.74
2023-02-25T12:11:55.286Z,47.64
2023-02-25T12:12:55.276Z,49.06
2023-02-25T12:13:55.280Z,49.03
2023-02-25T12:14:55.252Z,55.25
2023-02-25T12:15:55.234Z,48.99
2023-02-25T12:16:55.240Z,40.02
2023-02-25T12:17:55.221Z,47.39
2023-02-25T12:18:55.223Z,42.53
2023-02-25T12:19:55.194Z,48.62
2023-02-25T12:20:55.181Z,45.84
2023-02-25T12:21:55.201Z,46.16
2023-02-25T12:22:55.162Z,43.17
2023-02-25T12:23:55.193Z,44.39
2023-02-25T12:24:55.142Z,51.73
2023-02-25T12:25:55.127Z,46.59
2023-02-25T12:26:55.131Z,45.27
2023-02-25T12:27:55.104Z,49.76
2023-02-25T12:28:55.092Z,51.16
2023-02-25T12:29:55.081Z,46.40
2023-02-25T12:30:55.133Z,49.11
2023-02-25T12:31:55.147Z,48.10
2023-02-25T12:32:55.049Z,48.69
2023-02-25T12:33:55.038Z,45.69
2023-02-25T12:34:55.029Z,47.76
2023-02-25T12:35:55.018Z,44.11
2023-02-25T12:36:55.029Z,43.39
2023-02-25T12:37:55.009Z,51.53
2023-02-25T12:38:54.993Z,43.36
2023-02-25T12:39:54.976Z,43.47
2023-02-25T12:40:54.969Z,44.10
2023-02-25T12:41:54.968Z,46.84
2023-02-25T12:42:54.943Z,39.56
2023-02-25T12:43:54.932Z,42.21
2023-02-25T12:44:54.933Z,46.20
2023-02-25T12:45:54.934Z,47.49
2023-02-25T12:46:54.905Z,48.85
2023-02-25T12:47:54.900Z,45.07
2023-02-25T12:48:54.879Z,41.63
2023-02-25T12:49:54.870Z,48.97
2023-02-25T12:50:54.860Z,48.42
2023-02-25T12:51:54.847Z,36.72
2023-02-25T12:52:54.855Z,44.33
2023-02-25T12:53:54.857Z,46.76
2023-02-25T12:54:54.820Z,42.65
2023-02-25T12:55:54.800Z,40.28
2023-02-25T12:56:54.794Z,37.85